Impacts METAR Board
IDs:

KPDX - Portland Intl Arpt, OR, US

Updated at: 0700 UTC 24 Sep 2018
Potential Impact None Slight Moderate High
Time 23/19Z 23/20Z 23/21Z 23/22Z 23/23Z 24/00Z 24/01Z 24/02Z 24/03Z 24/04Z 24/05Z 24/06Z 24/07Z
Temp64 65 66 67 66 67 67 64 61 60 58 56 55
Dewpt46 43 44 44 42 42 42 44 43 44 45 46 47
Altim30.20 30.19 30.18 30.16 30.16 30.15 30.14 30.15 30.16 30.18 30.19 30.19 30.19
VIS10 10 10 10 10 10 10 10 10 10 10 10 10
CIG70 70 -- 75 70 -- -- -- -- -- -- -- --
CoverBKNBKNSCTBKNBKNSCTFEWFEWFEWFEWFEWFEWCLR
FltCatVFRVFRVFRVFRVFRVFRVFRVFRVFRVFRVFRVFRVFR
WX--------------------------
WDir3300360320310320350340320330310330310
WSpd4 5 6 6 6 10 6 5 11 8 8 5 6
WGst-- -- -- -- -- -- -- -- -- -- -- -- --
Raw hourly METARs
KPDX 231853Z 33004KT 10SM BKN070 18/08 A3020 RMK AO2 SLP225 T01780078
KPDX 231953Z VRB05KT 10SM BKN070 18/06 A3019 RMK AO2 SLP222 T01830061
KPDX 232053Z 36006KT 10SM FEW045 SCT065 SCT250 19/07 A3018 RMK AO2 SLP219 T01890067 58008
KPDX 232153Z 32006KT 10SM SCT060 BKN075 19/07 A3016 RMK AO2 SLP214 T01940067
KPDX 232253Z 31006KT 10SM FEW055 BKN070 19/06 A3016 RMK AO2 SLP212 T01890056
KPDX 232353Z 32010KT 10SM FEW050 SCT070 19/06 A3015 RMK AO2 SLP209 T01940056 10200 20156 56010
KPDX 240053Z 35006KT 10SM FEW050 FEW065 FEW250 19/06 A3014 RMK AO2 SLP206 T01940056
KPDX 240153Z 34005KT 10SM FEW065 FEW250 18/07 A3015 RMK AO2 SLP208 T01780067
KPDX 240253Z 32011KT 10SM FEW060 16/06 A3016 RMK AO2 SLP212 T01610061 53003
KPDX 240353Z 33008KT 10SM FEW060 16/07 A3018 RMK AO2 SLP218 T01560067
KPDX 240453Z 31008KT 10SM FEW060 14/07 A3019 RMK AO2 SLP221 T01440072
KPDX 240553Z 33005KT 10SM FEW060 13/08 A3019 RMK AO2 SLP220 T01330078 10200 20133 50008
KPDX 240653Z 31006KT 10SM CLR 13/08 A3019 RMK AO2 SLP221 T01280083



Page loaded:  07:30 UTC  |   12:30 AM Pacific  |   01:30 AM Mountain  |   02:30 AM Central  |   03:30 AM Eastern

 

ADVISORIES

FORECASTS

FORECASTS

OBSERVATIONS

USER TOOLS

ABOUT US